Morris, Canada
Current Conditions -  °F | °C
As of 4:00 AM on Friday 19 Dec 2014 (Local Time) from CYWG Reporting Station
Freezing Drizzle Freezing Drizzle  
Wind Chill:   Ceiling: 500
Heat Index: 19°   Visibility: 2mi
Dew Point: 18°   Wind: 13mph
Humidity: 93%   Direction: 170°S
Pressure: 30.1"   Gusts: NA
Location:  49.35°N, 97.37°W
Report Text: CYWG 191000Z 17011KT 2SM -FZDZ BR OVC005 M07/M08 A3010 RMK ST8 CIG RAG SLP210
Loading
Personal Weather Stations






























Interactive Weather Map New forecast layout! Learn more

10-Day Weather Forecast

Advertisements
Track Severe Weather on mobile